Bellevue, Nebraska
Current Conditions -  °F | °C
As of 6:58 AM on Friday 24 Oct 2014 (Local Time) from KOFF Reporting Station
Haze Haze  
Wind Chill: 57°   Ceiling: 500
Heat Index: 57°   Visibility: 1mi
Dew Point: 57°   Wind: 6mph
Humidity: 100%   Direction: 130°SE
Pressure: 29.95"   Gusts: NA
Location:  41.14°N, 95.89°W
Report Text: KOFF 241158Z AUTO 13005KT 1SM R12/4000FT BR VV005 14/14 A2995 RMK AO2 VIS 1/2V1 SLP145 57009
Loading
Personal Weather Stations






























Interactive Weather Map New forecast layout! Learn more

10-Day Weather Forecast

Advertisements
Track Severe Weather on mobile